createdAt,value
2019-03-03T00:01:15.578Z,13.40
2019-03-03T00:03:43.678Z,13.30
2019-03-03T00:06:11.729Z,13.30
2019-03-03T00:08:39.685Z,13.30
2019-03-03T00:11:07.663Z,13.40
2019-03-03T00:13:35.614Z,13.30
2019-03-03T00:16:03.591Z,13.30
2019-03-03T00:18:31.979Z,13.30
2019-03-03T00:20:59.921Z,13.30
2019-03-03T00:23:27.971Z,13.30
2019-03-03T00:25:56.095Z,13.30
2019-03-03T00:28:24.062Z,13.30
2019-03-03T00:30:53.967Z,13.30
2019-03-03T00:33:21.637Z,13.30
2019-03-03T00:35:49.588Z,13.30
2019-03-03T00:38:23.903Z,13.30
2019-03-03T00:41:22.596Z,13.20
2019-03-03T00:44:15.570Z,13.20
2019-03-03T00:46:53.010Z,13.20
2019-03-03T00:49:46.121Z,13.20
2019-03-03T00:52:35.901Z,13.20
2019-03-03T00:55:16.245Z,13.10
2019-03-03T00:57:58.157Z,13.00
2019-03-03T01:00:36.569Z,13.00
2019-03-03T01:03:21.791Z,13.00
2019-03-03T01:06:11.525Z,13.00
2019-03-03T01:08:55.245Z,12.90
2019-03-03T01:11:40.716Z,12.90
2019-03-03T01:14:33.477Z,12.90
2019-03-03T01:17:17.174Z,12.80
2019-03-03T01:20:12.727Z,12.80
2019-03-03T01:22:59.006Z,12.70
2019-03-03T01:25:27.016Z,12.70
2019-03-03T01:27:55.092Z,12.70
2019-03-03T01:30:23.166Z,12.70
2019-03-03T01:32:51.439Z,12.60
2019-03-03T01:35:19.510Z,12.60
2019-03-03T01:37:47.787Z,12.60
2019-03-03T01:40:15.964Z,12.50
2019-03-03T01:42:44.037Z,12.50
2019-03-03T01:45:12.298Z,12.50
2019-03-03T01:47:40.586Z,12.50
2019-03-03T01:50:08.745Z,12.50
2019-03-03T01:52:36.732Z,12.40
2019-03-03T01:55:05.912Z,12.40
2019-03-03T01:57:33.870Z,12.40
2019-03-03T02:00:01.967Z,12.40
2019-03-03T02:02:30.247Z,12.40
2019-03-03T02:04:58.213Z,12.40
2019-03-03T02:07:26.388Z,12.30
2019-03-03T02:09:56.104Z,12.30
2019-03-03T02:12:24.275Z,12.30
2019-03-03T02:14:52.243Z,12.20
2019-03-03T02:17:20.217Z,12.10
2019-03-03T02:19:49.894Z,12.10
2019-03-03T02:22:17.992Z,12.10
2019-03-03T02:24:45.936Z,12.00
2019-03-03T02:27:16.445Z,12.00
2019-03-03T02:29:44.539Z,12.00
2019-03-03T02:32:12.536Z,11.90
2019-03-03T02:34:40.492Z,11.90
2019-03-03T02:37:08.679Z,11.90
2019-03-03T02:39:38.346Z,11.80
2019-03-03T02:42:06.461Z,11.80
2019-03-03T02:44:34.634Z,11.80
2019-03-03T02:47:02.710Z,11.80
2019-03-03T02:49:30.783Z,11.70
2019-03-03T02:52:00.748Z,11.70
2019-03-03T02:54:29.278Z,11.60
2019-03-03T02:56:57.252Z,11.60
2019-03-03T02:59:27.050Z,11.60
2019-03-03T03:02:07.480Z,11.60
2019-03-03T03:04:35.679Z,11.60
2019-03-03T03:07:27.046Z,11.60
2019-03-03T03:10:09.293Z,11.60
2019-03-03T03:13:08.112Z,11.50
2019-03-03T03:15:56.897Z,11.50
2019-03-03T03:18:43.651Z,11.50
2019-03-03T03:21:40.673Z,11.50
2019-03-03T03:24:33.277Z,11.50
2019-03-03T03:27:26.522Z,11.50
2019-03-03T03:30:09.379Z,11.40
2019-03-03T03:32:47.971Z,11.40
2019-03-03T03:35:25.524Z,11.50
2019-03-03T03:38:09.198Z,11.40
2019-03-03T03:40:48.976Z,11.30
2019-03-03T03:43:38.268Z,11.30
2019-03-03T03:46:22.146Z,11.30
2019-03-03T03:49:01.274Z,11.20
2019-03-03T03:51:41.503Z,11.20
2019-03-03T03:54:28.261Z,11.20
2019-03-03T03:57:13.408Z,11.20
2019-03-03T04:00:12.531Z,11.10
2019-03-03T04:03:05.079Z,11.10
2019-03-03T04:05:54.660Z,11.10
2019-03-03T04:08:43.399Z,11.10
2019-03-03T04:11:36.443Z,11.10
2019-03-03T04:14:11.389Z,11.10
2019-03-03T04:17:04.226Z,11.00
2019-03-03T04:19:52.953Z,11.00
2019-03-03T04:22:54.848Z,11.00
2019-03-03T04:25:44.762Z,11.00
2019-03-03T04:28:30.340Z,11.00
2019-03-03T04:31:17.125Z,11.00
2019-03-03T04:34:03.859Z,11.00
2019-03-03T04:36:49.627Z,11.00
2019-03-03T04:39:27.233Z,11.00
2019-03-03T04:42:12.724Z,11.00
2019-03-03T04:44:58.077Z,11.00
2019-03-03T04:47:42.148Z,10.90
2019-03-03T04:50:31.903Z,10.90
2019-03-03T04:53:09.298Z,10.90
2019-03-03T04:55:56.111Z,10.90
2019-03-03T04:58:31.442Z,10.90
2019-03-03T05:01:17.154Z,10.90
2019-03-03T05:04:03.945Z,10.90
2019-03-03T05:07:01.609Z,10.90
2019-03-03T05:09:48.597Z,10.90
2019-03-03T05:12:26.037Z,10.80
2019-03-03T05:14:56.357Z,10.80
2019-03-03T05:17:45.988Z,10.90
2019-03-03T05:20:14.115Z,10.90
2019-03-03T05:22:42.082Z,10.90
2019-03-03T05:25:10.032Z,10.90
2019-03-03T05:27:38.023Z,10.90
2019-03-03T05:30:05.991Z,10.90
2019-03-03T05:32:33.943Z,10.80
2019-03-03T05:35:01.936Z,10.90
2019-03-03T05:37:30.945Z,10.80
2019-03-03T05:40:00.231Z,10.80
2019-03-03T05:42:35.410Z,10.80
2019-03-03T05:45:03.433Z,10.70
2019-03-03T05:47:31.379Z,10.70
2019-03-03T05:49:59.785Z,10.70
2019-03-03T05:52:27.824Z,10.70
2019-03-03T05:54:57.634Z,10.60
2019-03-03T05:57:27.428Z,10.60
2019-03-03T05:59:55.345Z,10.60
2019-03-03T06:02:23.596Z,10.60
2019-03-03T06:04:53.597Z,10.60
2019-03-03T06:07:21.813Z,10.60
2019-03-03T06:09:49.785Z,10.60
2019-03-03T06:12:17.735Z,10.60
2019-03-03T06:14:45.726Z,10.60
2019-03-03T06:17:13.698Z,10.60
2019-03-03T06:19:42.537Z,10.60
2019-03-03T06:22:10.556Z,10.50
2019-03-03T06:24:38.456Z,10.50
2019-03-03T06:27:06.568Z,10.50
2019-03-03T06:29:34.539Z,10.60
2019-03-03T06:32:02.515Z,10.60
2019-03-03T06:34:30.608Z,10.60
2019-03-03T06:37:00.478Z,10.60
2019-03-03T06:39:28.286Z,10.60
2019-03-03T06:41:56.354Z,10.70
2019-03-03T06:44:24.431Z,10.80
2019-03-03T06:46:52.377Z,10.80
2019-03-03T06:49:20.470Z,10.90
2019-03-03T06:51:48.421Z,10.90
2019-03-03T06:54:16.408Z,11.00
2019-03-03T06:56:46.319Z,11.10
2019-03-03T06:59:13.989Z,11.20
2019-03-03T07:01:41.958Z,11.40
2019-03-03T07:04:12.265Z,11.50
2019-03-03T07:06:39.921Z,11.60
2019-03-03T07:09:08.019Z,11.70
2019-03-03T07:11:37.699Z,11.90
2019-03-03T07:14:05.665Z,12.00
2019-03-03T07:16:33.767Z,12.20
2019-03-03T07:19:01.707Z,12.30
2019-03-03T07:21:29.678Z,12.50
2019-03-03T07:23:57.645Z,12.60
2019-03-03T07:26:25.643Z,12.80
2019-03-03T07:28:53.615Z,12.90
2019-03-03T07:31:21.558Z,13.00
2019-03-03T07:33:53.545Z,13.10
2019-03-03T07:36:21.515Z,13.20
2019-03-03T07:38:50.604Z,13.40
2019-03-03T07:41:19.092Z,13.50
2019-03-03T07:43:47.059Z,13.70
2019-03-03T07:46:15.131Z,14.00
2019-03-03T07:48:43.174Z,14.30
2019-03-03T07:51:11.146Z,14.80
2019-03-03T07:53:39.143Z,15.60
2019-03-03T07:56:09.113Z,16.60
2019-03-03T07:58:36.821Z,17.50
2019-03-03T08:01:05.303Z,18.30
2019-03-03T08:03:33.375Z,18.90
2019-03-03T08:06:01.319Z,19.20
2019-03-03T08:08:29.425Z,19.10
2019-03-03T08:10:57.594Z,19.10
2019-03-03T08:13:25.765Z,19.10
2019-03-03T08:15:53.913Z,19.30
2019-03-03T08:18:22.009Z,19.30
2019-03-03T08:20:50.188Z,19.50
2019-03-03T08:23:18.212Z,20.00
2019-03-03T08:25:48.061Z,20.30
2019-03-03T08:28:15.728Z,21.30
2019-03-03T08:30:43.681Z,22.00
2019-03-03T08:33:12.710Z,22.60
2019-03-03T08:35:40.666Z,23.50
2019-03-03T08:38:08.632Z,23.70
2019-03-03T08:40:36.993Z,24.50
2019-03-03T08:43:22.595Z,25.00
2019-03-03T08:46:15.656Z,25.20
2019-03-03T08:48:54.481Z,25.30
2019-03-03T08:51:34.717Z,25.30
2019-03-03T08:54:21.634Z,25.00
2019-03-03T08:57:16.828Z,24.80
2019-03-03T09:00:03.541Z,25.20
2019-03-03T09:02:44.725Z,25.70
2019-03-03T09:05:36.966Z,26.30
2019-03-03T09:08:13.331Z,27.00
2019-03-03T09:10:48.974Z,27.80
2019-03-03T09:13:35.707Z,28.30
2019-03-03T09:16:28.765Z,29.10
2019-03-03T09:19:22.723Z,29.40
2019-03-03T09:22:04.782Z,29.40
2019-03-03T09:25:03.820Z,29.70
2019-03-03T09:27:47.558Z,29.80
2019-03-03T09:30:32.014Z,29.70
2019-03-03T09:33:34.282Z,30.30
2019-03-03T09:36:14.945Z,30.80
2019-03-03T09:39:01.786Z,30.40
2019-03-03T09:42:00.865Z,31.50
2019-03-03T09:44:50.564Z,31.40
2019-03-03T09:47:40.142Z,30.60
2019-03-03T09:50:21.480Z,30.90
2019-03-03T09:53:16.818Z,30.70
2019-03-03T09:56:01.806Z,30.50
2019-03-03T09:58:40.199Z,30.80
2019-03-03T10:01:20.168Z,30.80
2019-03-03T10:04:16.297Z,30.30
2019-03-03T10:07:06.182Z,30.00
2019-03-03T10:09:56.575Z,29.90
2019-03-03T10:12:39.694Z,29.90
2019-03-03T10:15:26.498Z,29.40
2019-03-03T10:18:10.860Z,28.80
2019-03-03T10:20:56.446Z,28.30
2019-03-03T10:23:55.444Z,28.20
2019-03-03T10:26:35.135Z,27.20
2019-03-03T10:29:24.990Z,25.80
2019-03-03T10:32:06.750Z,24.80
2019-03-03T10:34:56.546Z,24.10
2019-03-03T10:38:02.968Z,23.80
2019-03-03T10:40:48.395Z,23.00
2019-03-03T10:43:35.104Z,22.20
2019-03-03T10:46:20.558Z,21.60
2019-03-03T10:49:13.420Z,20.90
2019-03-03T10:52:06.601Z,20.70
2019-03-03T10:54:43.040Z,20.30
2019-03-03T10:57:38.891Z,20.10
2019-03-03T11:00:43.827Z,20.10
2019-03-03T11:03:33.586Z,19.80
2019-03-03T11:06:20.394Z,19.80
2019-03-03T11:09:16.242Z,19.70
2019-03-03T11:11:55.861Z,19.60
2019-03-03T11:14:48.401Z,19.40
2019-03-03T11:17:28.260Z,19.50
2019-03-03T11:20:14.678Z,19.70
2019-03-03T11:23:01.592Z,19.80
2019-03-03T11:25:47.283Z,19.90
2019-03-03T11:28:32.840Z,20.20
2019-03-03T11:31:22.313Z,20.30
2019-03-03T11:34:07.617Z,20.30
2019-03-03T11:36:54.349Z,20.30
2019-03-03T11:39:41.134Z,20.40
2019-03-03T11:42:19.850Z,20.40
2019-03-03T11:45:13.110Z,20.00
2019-03-03T11:48:04.391Z,19.70
2019-03-03T11:50:55.949Z,19.60
2019-03-03T11:53:38.663Z,19.30
2019-03-03T11:56:21.854Z,19.50
2019-03-03T11:59:20.999Z,19.60
2019-03-03T12:02:06.576Z,19.60
2019-03-03T12:04:59.297Z,19.70
2019-03-03T12:08:01.211Z,19.70
2019-03-03T12:10:46.437Z,19.70
2019-03-03T12:13:29.362Z,19.70
2019-03-03T12:16:16.299Z,19.60
2019-03-03T12:19:06.050Z,19.60
2019-03-03T12:21:51.790Z,19.80
2019-03-03T12:24:47.509Z,19.80
2019-03-03T12:27:23.886Z,19.80
2019-03-03T12:30:09.291Z,19.80
2019-03-03T12:32:51.907Z,19.80
2019-03-03T12:35:27.753Z,19.90
2019-03-03T12:38:22.822Z,19.80
2019-03-03T12:41:21.687Z,19.80
2019-03-03T12:44:20.607Z,19.90
2019-03-03T12:47:10.184Z,19.80
2019-03-03T12:50:01.486Z,19.60
2019-03-03T12:52:48.141Z,19.60
2019-03-03T12:55:47.292Z,19.80
2019-03-03T12:58:40.123Z,19.80
2019-03-03T13:01:34.370Z,19.90
2019-03-03T13:04:20.216Z,20.10
2019-03-03T13:07:10.372Z,20.20
2019-03-03T13:09:52.986Z,20.50
2019-03-03T13:12:36.532Z,20.40
2019-03-03T13:15:17.531Z,20.40
2019-03-03T13:17:51.824Z,20.70
2019-03-03T13:20:40.458Z,20.70
2019-03-03T13:23:28.193Z,20.60
2019-03-03T13:26:17.673Z,20.40
2019-03-03T13:29:13.303Z,20.40
2019-03-03T13:31:47.518Z,20.30
2019-03-03T13:34:24.110Z,20.30
2019-03-03T13:37:10.812Z,20.10
2019-03-03T13:40:06.724Z,19.70
2019-03-03T13:42:56.320Z,19.40
2019-03-03T13:45:25.689Z,19.30
2019-03-03T13:47:53.796Z,19.30
2019-03-03T13:50:21.767Z,19.40
2019-03-03T13:52:49.839Z,19.40
2019-03-03T13:55:20.961Z,19.30
2019-03-03T13:57:48.950Z,19.30
2019-03-03T14:00:18.542Z,19.50
2019-03-03T14:02:46.607Z,19.50
2019-03-03T14:05:14.702Z,19.60
2019-03-03T14:07:43.860Z,19.60
2019-03-03T14:10:11.973Z,19.60
2019-03-03T14:12:41.694Z,19.70
2019-03-03T14:15:09.945Z,20.00
2019-03-03T14:17:37.906Z,20.30
2019-03-03T14:20:05.909Z,20.60
2019-03-03T14:22:34.255Z,20.90
2019-03-03T14:25:02.757Z,21.10
2019-03-03T14:27:31.035Z,21.30
2019-03-03T14:29:59.087Z,21.40
2019-03-03T14:32:27.052Z,21.50
2019-03-03T14:34:56.213Z,21.80
2019-03-03T14:37:24.349Z,22.00
2019-03-03T14:39:53.851Z,22.10
2019-03-03T14:42:22.353Z,22.10
2019-03-03T14:44:50.303Z,21.90
2019-03-03T14:47:18.258Z,21.70
2019-03-03T14:49:47.693Z,21.60
2019-03-03T14:52:16.257Z,21.40
2019-03-03T14:54:44.201Z,21.50
2019-03-03T14:57:12.199Z,21.60
2019-03-03T14:59:40.269Z,21.30
2019-03-03T15:02:08.232Z,21.50
2019-03-03T15:04:36.209Z,21.40
2019-03-03T15:07:04.151Z,21.30
2019-03-03T15:09:33.182Z,20.90
2019-03-03T15:12:01.153Z,20.70
2019-03-03T15:14:29.286Z,20.60
2019-03-03T15:16:57.403Z,20.40
2019-03-03T15:19:25.643Z,20.30
2019-03-03T15:21:53.845Z,20.30
2019-03-03T15:24:21.992Z,20.40
2019-03-03T15:26:49.982Z,20.60
2019-03-03T15:29:17.924Z,20.60
2019-03-03T15:31:46.026Z,20.40
2019-03-03T15:34:14.092Z,20.40
2019-03-03T15:36:42.063Z,20.30
2019-03-03T15:39:10.636Z,20.50
2019-03-03T15:41:38.618Z,20.90
2019-03-03T15:44:11.521Z,21.40
2019-03-03T15:46:41.453Z,21.70
2019-03-03T15:49:10.301Z,22.00
2019-03-03T15:51:39.536Z,22.90
2019-03-03T15:54:07.580Z,23.90
2019-03-03T15:56:35.627Z,24.90
2019-03-03T15:59:04.770Z,25.40
2019-03-03T16:01:33.025Z,25.70
2019-03-03T16:04:00.990Z,25.20
2019-03-03T16:06:28.963Z,24.60
2019-03-03T16:08:57.035Z,24.00
2019-03-03T16:11:25.100Z,23.20
2019-03-03T16:13:53.291Z,22.60
2019-03-03T16:16:21.249Z,22.10
2019-03-03T16:18:49.425Z,21.40
2019-03-03T16:21:19.930Z,21.00
2019-03-03T16:23:49.243Z,20.70
2019-03-03T16:26:17.424Z,20.40
2019-03-03T16:28:45.599Z,20.10
2019-03-03T16:31:14.652Z,20.00
2019-03-03T16:33:44.295Z,19.80
2019-03-03T16:36:13.562Z,19.60
2019-03-03T16:38:42.528Z,19.40
2019-03-03T16:41:10.781Z,19.20
2019-03-03T16:43:39.680Z,18.90
2019-03-03T16:46:07.837Z,18.80
2019-03-03T16:48:35.805Z,18.70
2019-03-03T16:51:03.756Z,18.60
2019-03-03T16:53:31.718Z,18.50
2019-03-03T16:55:59.892Z,18.30
2019-03-03T16:58:27.994Z,18.20
2019-03-03T17:00:55.909Z,18.10
2019-03-03T17:03:24.140Z,18.00
2019-03-03T17:05:55.074Z,17.90
2019-03-03T17:08:24.248Z,17.90
2019-03-03T17:10:53.190Z,17.80
2019-03-03T17:13:21.337Z,17.80
2019-03-03T17:15:49.613Z,17.70
2019-03-03T17:18:17.687Z,17.70
2019-03-03T17:20:45.575Z,17.60
2019-03-03T17:23:13.628Z,17.50
2019-03-03T17:25:41.595Z,17.50
2019-03-03T17:28:11.479Z,17.40
2019-03-03T17:30:39.451Z,17.40
2019-03-03T17:33:07.652Z,17.30
2019-03-03T17:35:35.593Z,17.20
2019-03-03T17:38:03.700Z,17.20
2019-03-03T17:40:31.667Z,17.20
2019-03-03T17:42:59.828Z,17.20
2019-03-03T17:45:30.041Z,17.10
2019-03-03T17:47:58.130Z,17.00
2019-03-03T17:50:26.099Z,17.00
2019-03-03T17:52:54.079Z,16.90
2019-03-03T17:55:22.050Z,16.90
2019-03-03T17:57:49.998Z,16.80
2019-03-03T18:00:18.186Z,16.80
2019-03-03T18:02:46.154Z,16.80
2019-03-03T18:05:15.352Z,16.70
2019-03-03T18:07:44.871Z,16.70
2019-03-03T18:10:14.974Z,16.60
2019-03-03T18:12:42.856Z,16.60
2019-03-03T18:15:10.887Z,16.50
2019-03-03T18:17:39.688Z,16.50
2019-03-03T18:20:07.680Z,16.50
2019-03-03T18:22:35.748Z,16.40
2019-03-03T18:25:03.713Z,16.40
2019-03-03T18:27:31.787Z,16.40
2019-03-03T18:29:59.838Z,16.40
2019-03-03T18:32:27.807Z,16.40
2019-03-03T18:34:57.141Z,16.40
2019-03-03T18:37:25.097Z,16.30
2019-03-03T18:39:53.158Z,16.40
2019-03-03T18:42:21.139Z,16.40
2019-03-03T18:44:50.235Z,16.40
2019-03-03T18:47:18.207Z,16.50
2019-03-03T18:49:46.378Z,16.50
2019-03-03T18:52:14.451Z,16.50
2019-03-03T18:54:42.349Z,16.50
2019-03-03T18:57:10.490Z,16.50
2019-03-03T18:59:38.542Z,16.50
2019-03-03T19:02:06.613Z,16.60
2019-03-03T19:04:34.604Z,16.60
2019-03-03T19:07:02.656Z,16.70
2019-03-03T19:09:30.747Z,16.80
2019-03-03T19:11:58.820Z,16.80
2019-03-03T19:14:28.469Z,16.80
2019-03-03T19:16:56.676Z,16.80
2019-03-03T19:19:24.880Z,16.80
2019-03-03T19:21:53.053Z,16.80
2019-03-03T19:24:21.205Z,16.90
2019-03-03T19:26:51.055Z,16.90
2019-03-03T19:29:18.907Z,16.90
2019-03-03T19:31:46.879Z,17.00
2019-03-03T19:34:16.472Z,17.00
2019-03-03T19:36:45.814Z,17.00
2019-03-03T19:39:13.958Z,17.10
2019-03-03T19:41:41.928Z,17.30
2019-03-03T19:44:11.303Z,17.30
2019-03-03T19:46:39.606Z,17.20
2019-03-03T19:49:07.555Z,17.20
2019-03-03T19:51:35.650Z,17.10
2019-03-03T19:54:03.630Z,17.10
2019-03-03T19:56:31.688Z,17.10
2019-03-03T19:59:00.747Z,17.10
2019-03-03T20:01:28.760Z,17.00
2019-03-03T20:03:57.234Z,17.00
2019-03-03T20:06:25.318Z,17.00
2019-03-03T20:08:53.352Z,17.00
2019-03-03T20:11:21.458Z,17.00
2019-03-03T20:13:49.607Z,17.00
2019-03-03T20:16:31.506Z,16.90
2019-03-03T20:18:59.186Z,16.70
2019-03-03T20:21:27.254Z,16.60
2019-03-03T20:23:55.227Z,16.60
2019-03-03T20:26:23.298Z,16.60
2019-03-03T20:28:51.266Z,16.50
2019-03-03T20:31:19.252Z,16.50
2019-03-03T20:33:49.119Z,16.50
2019-03-03T20:36:17.120Z,16.40
2019-03-03T20:38:46.094Z,16.40
2019-03-03T20:41:14.084Z,16.30
2019-03-03T20:43:42.159Z,16.30
2019-03-03T20:46:10.103Z,16.20
2019-03-03T20:48:38.297Z,16.20
2019-03-03T20:51:06.242Z,16.00
2019-03-03T20:53:35.801Z,15.90
2019-03-03T20:56:03.806Z,15.80
2019-03-03T20:58:31.916Z,15.70
2019-03-03T21:01:00.198Z,15.60
2019-03-03T21:03:29.497Z,15.70
2019-03-03T21:05:57.435Z,15.70
2019-03-03T21:08:25.413Z,15.60
2019-03-03T21:10:53.711Z,15.60
2019-03-03T21:13:21.678Z,15.70
2019-03-03T21:15:49.852Z,15.70
2019-03-03T21:18:17.926Z,15.60
2019-03-03T21:20:45.970Z,15.60
2019-03-03T21:23:13.968Z,15.60
2019-03-03T21:25:42.038Z,15.70
2019-03-03T21:28:10.011Z,15.60
2019-03-03T21:30:39.491Z,15.60
2019-03-03T21:33:08.558Z,15.60
2019-03-03T21:35:36.888Z,15.50
2019-03-03T21:38:06.486Z,15.50
2019-03-03T21:40:36.351Z,15.40
2019-03-03T21:43:04.171Z,15.50
2019-03-03T21:45:32.349Z,15.40
2019-03-03T21:48:00.290Z,15.30
2019-03-03T21:50:28.481Z,15.30
2019-03-03T21:52:56.746Z,15.20
2019-03-03T21:55:25.409Z,15.20
2019-03-03T21:57:53.630Z,15.10
2019-03-03T22:00:21.576Z,15.10
2019-03-03T22:02:49.874Z,15.10
2019-03-03T22:05:17.944Z,15.10
2019-03-03T22:07:46.078Z,15.10
2019-03-03T22:10:14.402Z,15.20
2019-03-03T22:12:42.477Z,15.10
2019-03-03T22:15:10.822Z,15.10
2019-03-03T22:17:39.432Z,15.10
2019-03-03T22:20:07.503Z,15.00
2019-03-03T22:22:35.451Z,15.00
2019-03-03T22:25:03.652Z,15.00
2019-03-03T22:27:31.603Z,15.00
2019-03-03T22:29:59.688Z,15.00
2019-03-03T22:32:27.967Z,15.10
2019-03-03T22:34:56.147Z,15.00
2019-03-03T22:37:24.089Z,15.00
2019-03-03T22:39:52.589Z,15.10
2019-03-03T22:42:20.561Z,15.10
2019-03-03T22:44:50.312Z,15.20
2019-03-03T22:47:18.418Z,15.30
2019-03-03T22:49:46.805Z,15.50
2019-03-03T22:52:15.610Z,15.50
2019-03-03T22:54:44.160Z,15.60
2019-03-03T22:57:12.850Z,15.60
2019-03-03T22:59:41.715Z,15.70
2019-03-03T23:02:10.149Z,15.60
2019-03-03T23:04:38.905Z,15.60
2019-03-03T23:07:08.463Z,15.60
2019-03-03T23:09:36.593Z,15.60
2019-03-03T23:12:04.558Z,15.60
2019-03-03T23:14:32.729Z,15.50
2019-03-03T23:17:00.728Z,15.50
2019-03-03T23:19:28.907Z,15.50
2019-03-03T23:21:56.981Z,15.60
2019-03-03T23:24:24.917Z,15.70
2019-03-03T23:26:52.916Z,15.90
2019-03-03T23:29:20.853Z,15.90
2019-03-03T23:31:48.859Z,16.00
2019-03-03T23:34:16.926Z,16.00
2019-03-03T23:36:44.895Z,15.90
2019-03-03T23:39:12.863Z,15.90
2019-03-03T23:41:40.935Z,16.00
2019-03-03T23:44:08.881Z,16.00
2019-03-03T23:46:38.806Z,16.00
2019-03-03T23:49:06.453Z,15.90
2019-03-03T23:51:36.157Z,15.90
2019-03-03T23:54:04.237Z,15.80
2019-03-03T23:56:32.345Z,15.80
2019-03-03T23:59:00.392Z,15.90
